sensor_id;sensor_type;location;lat;lon;timestamp;P1;durP1;ratioP1;P2;durP2;ratioP2
37459;SDS011;23318;50.966;5.284;2024-01-16T00:00:15;11.13;;;3.28;;
37459;SDS011;23318;50.966;5.284;2024-01-16T00:02:41;12.27;;;3.17;;
37459;SDS011;23318;50.966;5.284;2024-01-16T00:05:06;14.65;;;4.93;;
37459;SDS011;23318;50.966;5.284;2024-01-16T00:07:32;9.63;;;3.40;;
37459;SDS011;23318;50.966;5.284;2024-01-16T00:10:00;13.52;;;3.80;;
37459;SDS011;23318;50.966;5.284;2024-01-16T00:12:26;13.00;;;4.13;;
37459;SDS011;23318;50.966;5.284;2024-01-16T00:14:51;12.65;;;3.53;;
37459;SDS011;23318;50.966;5.284;2024-01-16T00:17:17;9.57;;;4.07;;
37459;SDS011;23318;50.966;5.284;2024-01-16T00:19:43;18.67;;;4.10;;
37459;SDS011;23318;50.966;5.284;2024-01-16T00:22:08;13.90;;;3.13;;
37459;SDS011;23318;50.966;5.284;2024-01-16T00:24:34;12.55;;;4.40;;
37459;SDS011;23318;50.966;5.284;2024-01-16T00:27:00;16.20;;;3.83;;
37459;SDS011;23318;50.966;5.284;2024-01-16T00:29:25;10.00;;;3.40;;
37459;SDS011;23318;50.966;5.284;2024-01-16T00:31:51;16.00;;;4.55;;
37459;SDS011;23318;50.966;5.284;2024-01-16T00:34:16;8.50;;;2.95;;
37459;SDS011;23318;50.966;5.284;2024-01-16T00:36:42;12.52;;;3.58;;
37459;SDS011;23318;50.966;5.284;2024-01-16T00:39:08;8.25;;;3.15;;
37459;SDS011;23318;50.966;5.284;2024-01-16T00:41:34;11.70;;;3.42;;
37459;SDS011;23318;50.966;5.284;2024-01-16T00:43:59;13.20;;;3.03;;
37459;SDS011;23318;50.966;5.284;2024-01-16T00:46:25;9.45;;;3.45;;
37459;SDS011;23318;50.966;5.284;2024-01-16T00:48:51;10.80;;;3.63;;
37459;SDS011;23318;50.966;5.284;2024-01-16T00:51:16;10.73;;;4.22;;
37459;SDS011;23318;50.966;5.284;2024-01-16T00:53:42;10.77;;;3.40;;
37459;SDS011;23318;50.966;5.284;2024-01-16T00:56:09;13.57;;;3.45;;
37459;SDS011;23318;50.966;5.284;2024-01-16T00:58:35;13.15;;;3.88;;
37459;SDS011;23318;50.966;5.284;2024-01-16T01:01:01;15.30;;;3.38;;
37459;SDS011;23318;50.966;5.284;2024-01-16T01:03:27;10.30;;;3.90;;
37459;SDS011;23318;50.966;5.284;2024-01-16T01:05:52;8.55;;;3.95;;
37459;SDS011;23318;50.966;5.284;2024-01-16T01:08:18;10.32;;;3.10;;
37459;SDS011;23318;50.966;5.284;2024-01-16T01:10:44;12.52;;;3.30;;
37459;SDS011;23318;50.966;5.284;2024-01-16T01:13:09;12.13;;;3.90;;
37459;SDS011;23318;50.966;5.284;2024-01-16T01:15:35;9.15;;;3.40;;
37459;SDS011;23318;50.966;5.284;2024-01-16T01:18:01;9.13;;;3.40;;
37459;SDS011;23318;50.966;5.284;2024-01-16T01:20:27;17.35;;;3.58;;
37459;SDS011;23318;50.966;5.284;2024-01-16T01:22:52;11.77;;;4.78;;
37459;SDS011;23318;50.966;5.284;2024-01-16T01:25:18;9.13;;;3.47;;
37459;SDS011;23318;50.966;5.284;2024-01-16T01:27:44;12.40;;;3.58;;
37459;SDS011;23318;50.966;5.284;2024-01-16T01:30:10;8.60;;;4.15;;
37459;SDS011;23318;50.966;5.284;2024-01-16T01:32:36;6.57;;;3.15;;
37459;SDS011;23318;50.966;5.284;2024-01-16T01:35:03;10.70;;;3.88;;
37459;SDS011;23318;50.966;5.284;2024-01-16T01:37:29;11.25;;;3.20;;
37459;SDS011;23318;50.966;5.284;2024-01-16T01:39:55;17.40;;;3.60;;
37459;SDS011;23318;50.966;5.284;2024-01-16T01:42:20;8.55;;;3.55;;
37459;SDS011;23318;50.966;5.284;2024-01-16T01:44:46;7.07;;;2.78;;
37459;SDS011;23318;50.966;5.284;2024-01-16T01:47:12;11.32;;;3.67;;
37459;SDS011;23318;50.966;5.284;2024-01-16T01:49:38;11.63;;;3.13;;
37459;SDS011;23318;50.966;5.284;2024-01-16T01:52:04;14.27;;;3.30;;
37459;SDS011;23318;50.966;5.284;2024-01-16T01:54:31;11.52;;;3.28;;
37459;SDS011;23318;50.966;5.284;2024-01-16T01:56:59;12.25;;;3.03;;
37459;SDS011;23318;50.966;5.284;2024-01-16T01:59:25;8.20;;;2.92;;
37459;SDS011;23318;50.966;5.284;2024-01-16T02:01:51;12.70;;;3.05;;
37459;SDS011;23318;50.966;5.284;2024-01-16T02:04:20;16.08;;;3.60;;
37459;SDS011;23318;50.966;5.284;2024-01-16T02:06:47;11.65;;;3.60;;
37459;SDS011;23318;50.966;5.284;2024-01-16T02:09:13;11.63;;;3.17;;
37459;SDS011;23318;50.966;5.284;2024-01-16T02:11:39;14.13;;;3.25;;
37459;SDS011;23318;50.966;5.284;2024-01-16T02:14:06;9.20;;;3.20;;
37459;SDS011;23318;50.966;5.284;2024-01-16T02:16:38;8.38;;;2.47;;
37459;SDS011;23318;50.966;5.284;2024-01-16T02:21:39;10.48;;;3.20;;
37459;SDS011;23318;50.966;5.284;2024-01-16T02:24:08;11.52;;;3.03;;
37459;SDS011;23318;50.966;5.284;2024-01-16T02:26:36;12.07;;;2.90;;
37459;SDS011;23318;50.966;5.284;2024-01-16T02:29:02;8.60;;;3.42;;
37459;SDS011;23318;50.966;5.284;2024-01-16T02:31:31;9.07;;;2.60;;
37459;SDS011;23318;50.966;5.284;2024-01-16T02:33:58;9.75;;;3.22;;
37459;SDS011;23318;50.966;5.284;2024-01-16T02:36:27;18.90;;;3.22;;
37459;SDS011;23318;50.966;5.284;2024-01-16T02:38:54;9.63;;;3.80;;
37459;SDS011;23318;50.966;5.284;2024-01-16T02:41:20;6.28;;;2.83;;
37459;SDS011;23318;50.966;5.284;2024-01-16T02:43:46;12.30;;;3.40;;
37459;SDS011;23318;50.966;5.284;2024-01-16T02:46:11;10.93;;;3.88;;
37459;SDS011;23318;50.966;5.284;2024-01-16T02:48:38;13.20;;;3.67;;
37459;SDS011;23318;50.966;5.284;2024-01-16T02:51:04;10.23;;;3.55;;
37459;SDS011;23318;50.966;5.284;2024-01-16T02:53:30;10.55;;;2.95;;
37459;SDS011;23318;50.966;5.284;2024-01-16T02:55:56;18.73;;;3.60;;
37459;SDS011;23318;50.966;5.284;2024-01-16T02:58:24;9.68;;;3.97;;
37459;SDS011;23318;50.966;5.284;2024-01-16T03:00:50;10.52;;;2.80;;
37459;SDS011;23318;50.966;5.284;2024-01-16T03:03:16;11.90;;;3.15;;
37459;SDS011;23318;50.966;5.284;2024-01-16T03:05:42;11.98;;;3.67;;
37459;SDS011;23318;50.966;5.284;2024-01-16T03:08:08;19.73;;;3.65;;
37459;SDS011;23318;50.966;5.284;2024-01-16T03:10:33;15.65;;;3.55;;
37459;SDS011;23318;50.966;5.284;2024-01-16T03:12:59;11.68;;;4.22;;
37459;SDS011;23318;50.966;5.284;2024-01-16T03:15:25;7.95;;;3.30;;
37459;SDS011;23318;50.966;5.284;2024-01-16T03:17:50;11.43;;;3.10;;
37459;SDS011;23318;50.966;5.284;2024-01-16T03:20:17;10.27;;;3.33;;
37459;SDS011;23318;50.966;5.284;2024-01-16T03:22:43;8.88;;;3.38;;
37459;SDS011;23318;50.966;5.284;2024-01-16T03:25:09;9.68;;;3.38;;
37459;SDS011;23318;50.966;5.284;2024-01-16T03:27:37;13.98;;;3.17;;
37459;SDS011;23318;50.966;5.284;2024-01-16T03:30:03;16.55;;;3.72;;
37459;SDS011;23318;50.966;5.284;2024-01-16T03:32:29;12.00;;;3.85;;
37459;SDS011;23318;50.966;5.284;2024-01-16T03:34:54;9.95;;;3.05;;
37459;SDS011;23318;50.966;5.284;2024-01-16T03:37:20;13.57;;;3.13;;
37459;SDS011;23318;50.966;5.284;2024-01-16T03:39:46;14.13;;;2.90;;
37459;SDS011;23318;50.966;5.284;2024-01-16T03:42:12;9.10;;;2.80;;
37459;SDS011;23318;50.966;5.284;2024-01-16T03:44:40;8.90;;;3.17;;
37459;SDS011;23318;50.966;5.284;2024-01-16T03:47:06;9.82;;;3.47;;
37459;SDS011;23318;50.966;5.284;2024-01-16T03:49:32;11.95;;;3.03;;
37459;SDS011;23318;50.966;5.284;2024-01-16T03:51:58;12.32;;;3.00;;
37459;SDS011;23318;50.966;5.284;2024-01-16T03:54:24;9.32;;;2.90;;
37459;SDS011;23318;50.966;5.284;2024-01-16T03:56:50;14.00;;;3.22;;
37459;SDS011;23318;50.966;5.284;2024-01-16T03:59:16;10.13;;;2.90;;
37459;SDS011;23318;50.966;5.284;2024-01-16T04:01:42;9.48;;;4.18;;
37459;SDS011;23318;50.966;5.284;2024-01-16T04:04:09;10.32;;;2.80;;
37459;SDS011;23318;50.966;5.284;2024-01-16T04:06:35;17.30;;;4.03;;
37459;SDS011;23318;50.966;5.284;2024-01-16T04:09:01;8.48;;;3.28;;
37459;SDS011;23318;50.966;5.284;2024-01-16T04:11:28;10.52;;;2.63;;
37459;SDS011;23318;50.966;5.284;2024-01-16T04:13:54;10.93;;;2.45;;
37459;SDS011;23318;50.966;5.284;2024-01-16T04:16:20;14.80;;;3.25;;
37459;SDS011;23318;50.966;5.284;2024-01-16T04:18:45;12.68;;;2.97;;
37459;SDS011;23318;50.966;5.284;2024-01-16T04:21:11;11.52;;;3.50;;
37459;SDS011;23318;50.966;5.284;2024-01-16T04:23:37;18.38;;;3.60;;
37459;SDS011;23318;50.966;5.284;2024-01-16T04:26:02;10.13;;;3.03;;
37459;SDS011;23318;50.966;5.284;2024-01-16T04:28:28;9.57;;;3.42;;
37459;SDS011;23318;50.966;5.284;2024-01-16T04:30:54;8.48;;;2.90;;
37459;SDS011;23318;50.966;5.284;2024-01-16T04:33:19;11.55;;;3.63;;
37459;SDS011;23318;50.966;5.284;2024-01-16T04:35:45;15.32;;;3.63;;
37459;SDS011;23318;50.966;5.284;2024-01-16T04:38:11;11.27;;;3.05;;
37459;SDS011;23318;50.966;5.284;2024-01-16T04:40:37;10.57;;;3.10;;
37459;SDS011;23318;50.966;5.284;2024-01-16T04:43:02;11.77;;;2.83;;
37459;SDS011;23318;50.966;5.284;2024-01-16T04:45:28;11.13;;;3.70;;
37459;SDS011;23318;50.966;5.284;2024-01-16T04:47:54;9.77;;;3.10;;
37459;SDS011;23318;50.966;5.284;2024-01-16T04:50:19;9.15;;;2.80;;
37459;SDS011;23318;50.966;5.284;2024-01-16T04:52:45;9.68;;;2.83;;
37459;SDS011;23318;50.966;5.284;2024-01-16T04:55:11;10.55;;;2.97;;
37459;SDS011;23318;50.966;5.284;2024-01-16T04:57:37;10.07;;;3.38;;
37459;SDS011;23318;50.966;5.284;2024-01-16T05:00:03;6.43;;;3.28;;
37459;SDS011;23318;50.966;5.284;2024-01-16T05:02:32;15.45;;;2.63;;
37459;SDS011;23318;50.966;5.284;2024-01-16T05:04:59;12.75;;;3.05;;
37459;SDS011;23318;50.966;5.284;2024-01-16T05:07:25;8.80;;;2.72;;
37459;SDS011;23318;50.966;5.284;2024-01-16T05:09:51;9.80;;;3.22;;
37459;SDS011;23318;50.966;5.284;2024-01-16T05:12:17;11.40;;;3.30;;
37459;SDS011;23318;50.966;5.284;2024-01-16T05:14:43;9.68;;;2.83;;
37459;SDS011;23318;50.966;5.284;2024-01-16T05:17:08;13.90;;;3.92;;
37459;SDS011;23318;50.966;5.284;2024-01-16T05:19:34;8.50;;;3.80;;
37459;SDS011;23318;50.966;5.284;2024-01-16T05:21:59;14.10;;;3.33;;
37459;SDS011;23318;50.966;5.284;2024-01-16T05:24:25;10.98;;;3.63;;
37459;SDS011;23318;50.966;5.284;2024-01-16T05:26:51;9.85;;;3.38;;
37459;SDS011;23318;50.966;5.284;2024-01-16T05:29:17;11.55;;;3.25;;
37459;SDS011;23318;50.966;5.284;2024-01-16T05:31:43;10.85;;;3.50;;
37459;SDS011;23318;50.966;5.284;2024-01-16T05:34:09;13.82;;;3.30;;
37459;SDS011;23318;50.966;5.284;2024-01-16T05:36:35;12.60;;;3.58;;
37459;SDS011;23318;50.966;5.284;2024-01-16T05:39:01;11.30;;;3.85;;
37459;SDS011;23318;50.966;5.284;2024-01-16T05:41:31;21.40;;;4.45;;
37459;SDS011;23318;50.966;5.284;2024-01-16T05:43:58;13.27;;;4.50;;
37459;SDS011;23318;50.966;5.284;2024-01-16T05:46:24;16.95;;;4.03;;
37459;SDS011;23318;50.966;5.284;2024-01-16T05:48:49;14.27;;;4.95;;
37459;SDS011;23318;50.966;5.284;2024-01-16T05:51:15;12.40;;;4.85;;
37459;SDS011;23318;50.966;5.284;2024-01-16T05:53:41;19.08;;;5.18;;
37459;SDS011;23318;50.966;5.284;2024-01-16T05:56:06;14.10;;;5.47;;
37459;SDS011;23318;50.966;5.284;2024-01-16T05:58:33;15.55;;;5.10;;
37459;SDS011;23318;50.966;5.284;2024-01-16T06:01:03;17.30;;;5.22;;
37459;SDS011;23318;50.966;5.284;2024-01-16T06:03:30;21.70;;;5.93;;
37459;SDS011;23318;50.966;5.284;2024-01-16T06:05:55;17.20;;;6.03;;
37459;SDS011;23318;50.966;5.284;2024-01-16T06:08:21;19.92;;;5.43;;
37459;SDS011;23318;50.966;5.284;2024-01-16T06:10:47;18.15;;;5.30;;
37459;SDS011;23318;50.966;5.284;2024-01-16T06:13:12;17.40;;;5.28;;
37459;SDS011;23318;50.966;5.284;2024-01-16T06:15:38;28.23;;;5.60;;
37459;SDS011;23318;50.966;5.284;2024-01-16T06:18:03;16.67;;;4.95;;
37459;SDS011;23318;50.966;5.284;2024-01-16T06:20:29;18.52;;;6.28;;
37459;SDS011;23318;50.966;5.284;2024-01-16T06:22:56;17.42;;;5.45;;
37459;SDS011;23318;50.966;5.284;2024-01-16T06:25:21;19.85;;;6.38;;
37459;SDS011;23318;50.966;5.284;2024-01-16T06:27:47;17.35;;;5.45;;
37459;SDS011;23318;50.966;5.284;2024-01-16T06:30:13;13.07;;;5.30;;
37459;SDS011;23318;50.966;5.284;2024-01-16T06:32:39;14.70;;;5.07;;
37459;SDS011;23318;50.966;5.284;2024-01-16T06:35:04;15.43;;;5.22;;
37459;SDS011;23318;50.966;5.284;2024-01-16T06:37:30;18.45;;;6.10;;
37459;SDS011;23318;50.966;5.284;2024-01-16T06:39:56;16.60;;;5.65;;
37459;SDS011;23318;50.966;5.284;2024-01-16T06:42:22;22.77;;;6.18;;
37459;SDS011;23318;50.966;5.284;2024-01-16T06:44:47;20.52;;;6.03;;
37459;SDS011;23318;50.966;5.284;2024-01-16T06:47:13;15.95;;;6.10;;
37459;SDS011;23318;50.966;5.284;2024-01-16T06:49:39;19.70;;;5.93;;
37459;SDS011;23318;50.966;5.284;2024-01-16T06:52:04;16.48;;;6.55;;
37459;SDS011;23318;50.966;5.284;2024-01-16T06:54:32;16.52;;;6.32;;
37459;SDS011;23318;50.966;5.284;2024-01-16T06:56:57;20.60;;;5.32;;
37459;SDS011;23318;50.966;5.284;2024-01-16T06:59:23;13.85;;;5.13;;
37459;SDS011;23318;50.966;5.284;2024-01-16T07:01:48;17.35;;;5.90;;
37459;SDS011;23318;50.966;5.284;2024-01-16T07:04:14;11.25;;;4.53;;
37459;SDS011;23318;50.966;5.284;2024-01-16T07:06:40;19.35;;;6.22;;
37459;SDS011;23318;50.966;5.284;2024-01-16T07:09:06;17.48;;;5.03;;
37459;SDS011;23318;50.966;5.284;2024-01-16T07:11:35;15.10;;;5.53;;
37459;SDS011;23318;50.966;5.284;2024-01-16T07:14:01;19.15;;;5.65;;
37459;SDS011;23318;50.966;5.284;2024-01-16T07:16:28;16.60;;;4.78;;
37459;SDS011;23318;50.966;5.284;2024-01-16T07:18:54;34.05;;;5.45;;
37459;SDS011;23318;50.966;5.284;2024-01-16T07:21:20;23.15;;;5.70;;
37459;SDS011;23318;50.966;5.284;2024-01-16T07:23:46;17.35;;;5.63;;
37459;SDS011;23318;50.966;5.284;2024-01-16T07:26:12;19.38;;;5.75;;
37459;SDS011;23318;50.966;5.284;2024-01-16T07:28:38;13.52;;;4.70;;
37459;SDS011;23318;50.966;5.284;2024-01-16T07:31:03;17.23;;;5.40;;
37459;SDS011;23318;50.966;5.284;2024-01-16T07:33:30;14.05;;;4.80;;
37459;SDS011;23318;50.966;5.284;2024-01-16T07:35:56;14.98;;;5.45;;
37459;SDS011;23318;50.966;5.284;2024-01-16T07:38:21;17.67;;;6.82;;
37459;SDS011;23318;50.966;5.284;2024-01-16T07:40:47;22.55;;;7.43;;
37459;SDS011;23318;50.966;5.284;2024-01-16T07:43:13;17.42;;;5.07;;
37459;SDS011;23318;50.966;5.284;2024-01-16T07:45:38;15.85;;;5.03;;
37459;SDS011;23318;50.966;5.284;2024-01-16T07:48:04;21.50;;;4.82;;
37459;SDS011;23318;50.966;5.284;2024-01-16T07:50:30;15.57;;;5.10;;
37459;SDS011;23318;50.966;5.284;2024-01-16T07:52:56;18.48;;;6.72;;
37459;SDS011;23318;50.966;5.284;2024-01-16T07:55:21;15.20;;;5.22;;
37459;SDS011;23318;50.966;5.284;2024-01-16T07:57:47;20.15;;;5.47;;
37459;SDS011;23318;50.966;5.284;2024-01-16T08:00:12;16.17;;;5.60;;
37459;SDS011;23318;50.966;5.284;2024-01-16T08:02:38;12.88;;;4.95;;
37459;SDS011;23318;50.966;5.284;2024-01-16T08:05:04;23.67;;;6.57;;
37459;SDS011;23318;50.966;5.284;2024-01-16T08:07:30;20.58;;;5.75;;
37459;SDS011;23318;50.966;5.284;2024-01-16T08:09:56;20.73;;;5.95;;
37459;SDS011;23318;50.966;5.284;2024-01-16T08:12:22;23.55;;;6.78;;
37459;SDS011;23318;50.966;5.284;2024-01-16T08:14:48;18.67;;;5.55;;
37459;SDS011;23318;50.966;5.284;2024-01-16T08:17:13;18.55;;;5.65;;
37459;SDS011;23318;50.966;5.284;2024-01-16T08:19:39;25.77;;;6.18;;
37459;SDS011;23318;50.966;5.284;2024-01-16T08:22:06;16.80;;;4.80;;
37459;SDS011;23318;50.966;5.284;2024-01-16T08:24:31;14.10;;;5.50;;
37459;SDS011;23318;50.966;5.284;2024-01-16T08:26:57;21.48;;;5.05;;
37459;SDS011;23318;50.966;5.284;2024-01-16T08:29:26;16.17;;;5.15;;
37459;SDS011;23318;50.966;5.284;2024-01-16T08:31:51;20.75;;;6.00;;
37459;SDS011;23318;50.966;5.284;2024-01-16T08:34:18;18.80;;;5.35;;
37459;SDS011;23318;50.966;5.284;2024-01-16T08:36:43;19.38;;;5.28;;
37459;SDS011;23318;50.966;5.284;2024-01-16T08:39:09;13.70;;;4.78;;
37459;SDS011;23318;50.966;5.284;2024-01-16T08:41:35;12.95;;;4.65;;
37459;SDS011;23318;50.966;5.284;2024-01-16T08:44:01;23.08;;;6.00;;
37459;SDS011;23318;50.966;5.284;2024-01-16T08:46:27;17.00;;;5.57;;
37459;SDS011;23318;50.966;5.284;2024-01-16T08:48:53;28.27;;;6.03;;
37459;SDS011;23318;50.966;5.284;2024-01-16T08:51:19;15.90;;;4.60;;
37459;SDS011;23318;50.966;5.284;2024-01-16T08:53:45;17.20;;;5.53;;
37459;SDS011;23318;50.966;5.284;2024-01-16T08:56:11;17.13;;;5.13;;
37459;SDS011;23318;50.966;5.284;2024-01-16T08:58:37;19.42;;;5.78;;
37459;SDS011;23318;50.966;5.284;2024-01-16T09:01:06;22.98;;;5.28;;
37459;SDS011;23318;50.966;5.284;2024-01-16T09:03:32;18.50;;;6.45;;
37459;SDS011;23318;50.966;5.284;2024-01-16T09:05:59;15.82;;;5.68;;
37459;SDS011;23318;50.966;5.284;2024-01-16T09:08:25;11.70;;;4.88;;
37459;SDS011;23318;50.966;5.284;2024-01-16T09:10:54;13.75;;;5.45;;
37459;SDS011;23318;50.966;5.284;2024-01-16T09:13:21;13.90;;;5.38;;
37459;SDS011;23318;50.966;5.284;2024-01-16T09:15:48;18.08;;;5.30;;
37459;SDS011;23318;50.966;5.284;2024-01-16T09:18:14;11.82;;;4.28;;
37459;SDS011;23318;50.966;5.284;2024-01-16T09:20:41;18.92;;;5.13;;
37459;SDS011;23318;50.966;5.284;2024-01-16T09:23:07;12.23;;;4.93;;
37459;SDS011;23318;50.966;5.284;2024-01-16T09:25:34;16.40;;;4.70;;
37459;SDS011;23318;50.966;5.284;2024-01-16T09:28:00;20.67;;;4.70;;
37459;SDS011;23318;50.966;5.284;2024-01-16T09:30:26;15.98;;;4.60;;
37459;SDS011;23318;50.966;5.284;2024-01-16T09:32:52;16.73;;;5.25;;
37459;SDS011;23318;50.966;5.284;2024-01-16T09:35:18;12.48;;;4.93;;
37459;SDS011;23318;50.966;5.284;2024-01-16T09:37:43;13.38;;;6.53;;
37459;SDS011;23318;50.966;5.284;2024-01-16T09:40:10;17.40;;;4.85;;
37459;SDS011;23318;50.966;5.284;2024-01-16T09:42:36;11.68;;;4.00;;
37459;SDS011;23318;50.966;5.284;2024-01-16T09:45:02;14.13;;;7.13;;
37459;SDS011;23318;50.966;5.284;2024-01-16T09:47:29;18.98;;;6.72;;
37459;SDS011;23318;50.966;5.284;2024-01-16T09:49:57;12.25;;;5.30;;
37459;SDS011;23318;50.966;5.284;2024-01-16T09:52:25;18.85;;;5.75;;
37459;SDS011;23318;50.966;5.284;2024-01-16T09:54:51;9.30;;;4.10;;
37459;SDS011;23318;50.966;5.284;2024-01-16T09:57:18;18.95;;;5.93;;
37459;SDS011;23318;50.966;5.284;2024-01-16T09:59:48;15.65;;;5.30;;
37459;SDS011;23318;50.966;5.284;2024-01-16T10:02:13;11.60;;;5.60;;
37459;SDS011;23318;50.966;5.284;2024-01-16T10:04:40;16.00;;;4.95;;
37459;SDS011;23318;50.966;5.284;2024-01-16T10:07:06;11.75;;;4.40;;
37459;SDS011;23318;50.966;5.284;2024-01-16T10:09:34;13.10;;;4.90;;
37459;SDS011;23318;50.966;5.284;2024-01-16T10:12:00;12.00;;;5.65;;
37459;SDS011;23318;50.966;5.284;2024-01-16T10:14:28;18.92;;;4.63;;
37459;SDS011;23318;50.966;5.284;2024-01-16T10:17:01;10.75;;;3.92;;
37459;SDS011;23318;50.966;5.284;2024-01-16T10:19:30;10.52;;;4.45;;
37459;SDS011;23318;50.966;5.284;2024-01-16T10:22:03;12.73;;;3.90;;
37459;SDS011;23318;50.966;5.284;2024-01-16T10:24:31;13.40;;;3.83;;
37459;SDS011;23318;50.966;5.284;2024-01-16T10:26:59;16.63;;;4.65;;
37459;SDS011;23318;50.966;5.284;2024-01-16T10:29:25;10.60;;;3.40;;
37459;SDS011;23318;50.966;5.284;2024-01-16T10:31:52;11.68;;;5.15;;
37459;SDS011;23318;50.966;5.284;2024-01-16T10:34:21;13.32;;;4.45;;
37459;SDS011;23318;50.966;5.284;2024-01-16T10:36:48;10.75;;;3.83;;
37459;SDS011;23318;50.966;5.284;2024-01-16T10:39:17;12.43;;;3.80;;
37459;SDS011;23318;50.966;5.284;2024-01-16T10:41:56;13.73;;;3.83;;
37459;SDS011;23318;50.966;5.284;2024-01-16T10:44:22;6.68;;;2.92;;
37459;SDS011;23318;50.966;5.284;2024-01-16T10:46:48;8.27;;;2.92;;
37459;SDS011;23318;50.966;5.284;2024-01-16T10:49:14;13.63;;;2.47;;
37459;SDS011;23318;50.966;5.284;2024-01-16T10:51:42;8.77;;;2.78;;
37459;SDS011;23318;50.966;5.284;2024-01-16T10:54:12;9.35;;;3.35;;
37459;SDS011;23318;50.966;5.284;2024-01-16T10:56:43;15.88;;;2.97;;
37459;SDS011;23318;50.966;5.284;2024-01-16T10:59:27;10.00;;;3.17;;
37459;SDS011;23318;50.966;5.284;2024-01-16T11:02:11;12.82;;;4.22;;
37459;SDS011;23318;50.966;5.284;2024-01-16T11:04:40;10.02;;;3.22;;
37459;SDS011;23318;50.966;5.284;2024-01-16T11:07:08;10.13;;;3.45;;
37459;SDS011;23318;50.966;5.284;2024-01-16T11:09:34;10.73;;;3.63;;
37459;SDS011;23318;50.966;5.284;2024-01-16T11:12:00;13.60;;;3.50;;
37459;SDS011;23318;50.966;5.284;2024-01-16T11:14:27;11.32;;;2.60;;
37459;SDS011;23318;50.966;5.284;2024-01-16T11:16:55;14.00;;;4.20;;
37459;SDS011;23318;50.966;5.284;2024-01-16T11:19:22;14.98;;;4.15;;
37459;SDS011;23318;50.966;5.284;2024-01-16T11:21:50;6.95;;;3.38;;
37459;SDS011;23318;50.966;5.284;2024-01-16T11:24:16;9.85;;;3.83;;
37459;SDS011;23318;50.966;5.284;2024-01-16T11:26:42;10.05;;;3.47;;
37459;SDS011;23318;50.966;5.284;2024-01-16T11:37:07;11.63;;;3.45;;
37459;SDS011;23318;50.966;5.284;2024-01-16T11:39:33;6.97;;;2.88;;
37459;SDS011;23318;50.966;5.284;2024-01-16T11:41:59;8.80;;;3.20;;
37459;SDS011;23318;50.966;5.284;2024-01-16T11:47:21;9.02;;;3.30;;
37459;SDS011;23318;50.966;5.284;2024-01-16T11:49:49;9.55;;;3.35;;
37459;SDS011;23318;50.966;5.284;2024-01-16T11:55:26;8.35;;;3.45;;
37459;SDS011;23318;50.966;5.284;2024-01-16T12:00:37;8.60;;;2.67;;
37459;SDS011;23318;50.966;5.284;2024-01-16T12:03:06;11.52;;;3.47;;
37459;SDS011;23318;50.966;5.284;2024-01-16T12:05:33;11.82;;;2.88;;
37459;SDS011;23318;50.966;5.284;2024-01-16T12:07:59;7.55;;;2.95;;
37459;SDS011;23318;50.966;5.284;2024-01-16T12:10:26;10.18;;;3.70;;
37459;SDS011;23318;50.966;5.284;2024-01-16T12:12:59;8.40;;;3.10;;
37459;SDS011;23318;50.966;5.284;2024-01-16T12:15:25;7.80;;;2.88;;
37459;SDS011;23318;50.966;5.284;2024-01-16T12:17:52;6.75;;;2.95;;
37459;SDS011;23318;50.966;5.284;2024-01-16T12:20:19;6.30;;;2.63;;
37459;SDS011;23318;50.966;5.284;2024-01-16T12:22:51;8.32;;;3.00;;
37459;SDS011;23318;50.966;5.284;2024-01-16T12:25:21;11.52;;;3.20;;
37459;SDS011;23318;50.966;5.284;2024-01-16T12:27:56;9.00;;;2.47;;
37459;SDS011;23318;50.966;5.284;2024-01-16T12:30:26;10.77;;;3.28;;
37459;SDS011;23318;50.966;5.284;2024-01-16T12:33:04;8.93;;;3.17;;
37459;SDS011;23318;50.966;5.284;2024-01-16T12:35:32;10.52;;;2.10;;
37459;SDS011;23318;50.966;5.284;2024-01-16T12:37:59;7.35;;;1.80;;
37459;SDS011;23318;50.966;5.284;2024-01-16T12:40:26;7.60;;;2.63;;
37459;SDS011;23318;50.966;5.284;2024-01-16T12:42:52;9.82;;;2.60;;
37459;SDS011;23318;50.966;5.284;2024-01-16T12:45:18;7.25;;;2.80;;
37459;SDS011;23318;50.966;5.284;2024-01-16T12:47:49;5.47;;;2.20;;
37459;SDS011;23318;50.966;5.284;2024-01-16T12:50:22;8.88;;;2.88;;
37459;SDS011;23318;50.966;5.284;2024-01-16T12:52:49;7.82;;;2.55;;
37459;SDS011;23318;50.966;5.284;2024-01-16T12:55:15;9.00;;;3.00;;
37459;SDS011;23318;50.966;5.284;2024-01-16T12:57:42;9.98;;;3.35;;
37459;SDS011;23318;50.966;5.284;2024-01-16T13:00:20;6.10;;;3.20;;
37459;SDS011;23318;50.966;5.284;2024-01-16T13:02:50;9.48;;;2.50;;
37459;SDS011;23318;50.966;5.284;2024-01-16T13:05:17;8.60;;;2.30;;
37459;SDS011;23318;50.966;5.284;2024-01-16T13:07:43;11.18;;;2.70;;
37459;SDS011;23318;50.966;5.284;2024-01-16T13:10:10;5.25;;;2.33;;
37459;SDS011;23318;50.966;5.284;2024-01-16T13:12:40;5.68;;;2.63;;
37459;SDS011;23318;50.966;5.284;2024-01-16T13:15:06;6.57;;;2.80;;
37459;SDS011;23318;50.966;5.284;2024-01-16T13:17:33;7.05;;;2.25;;
37459;SDS011;23318;50.966;5.284;2024-01-16T13:20:00;5.70;;;2.25;;
37459;SDS011;23318;50.966;5.284;2024-01-16T13:22:28;7.13;;;3.22;;
37459;SDS011;23318;50.966;5.284;2024-01-16T13:24:54;5.90;;;2.38;;
37459;SDS011;23318;50.966;5.284;2024-01-16T13:27:20;7.80;;;2.47;;
37459;SDS011;23318;50.966;5.284;2024-01-16T13:29:47;8.60;;;2.63;;
37459;SDS011;23318;50.966;5.284;2024-01-16T13:32:12;7.50;;;2.63;;
37459;SDS011;23318;50.966;5.284;2024-01-16T13:34:38;6.63;;;2.65;;
37459;SDS011;23318;50.966;5.284;2024-01-16T13:37:04;7.50;;;2.75;;
37459;SDS011;23318;50.966;5.284;2024-01-16T13:39:30;7.13;;;2.45;;
37459;SDS011;23318;50.966;5.284;2024-01-16T13:42:01;5.43;;;2.00;;
37459;SDS011;23318;50.966;5.284;2024-01-16T13:44:30;6.28;;;2.08;;
37459;SDS011;23318;50.966;5.284;2024-01-16T13:46:56;6.57;;;2.90;;
37459;SDS011;23318;50.966;5.284;2024-01-16T13:49:22;10.70;;;2.97;;
37459;SDS011;23318;50.966;5.284;2024-01-16T13:51:47;6.30;;;2.10;;
37459;SDS011;23318;50.966;5.284;2024-01-16T13:54:13;4.13;;;1.58;;
37459;SDS011;23318;50.966;5.284;2024-01-16T13:56:38;6.93;;;2.25;;
37459;SDS011;23318;50.966;5.284;2024-01-16T13:59:04;6.35;;;2.00;;
37459;SDS011;23318;50.966;5.284;2024-01-16T14:01:30;5.13;;;2.10;;
37459;SDS011;23318;50.966;5.284;2024-01-16T14:03:55;10.07;;;3.10;;
37459;SDS011;23318;50.966;5.284;2024-01-16T14:06:21;9.38;;;2.35;;
37459;SDS011;23318;50.966;5.284;2024-01-16T14:08:46;6.38;;;1.92;;
37459;SDS011;23318;50.966;5.284;2024-01-16T14:11:12;5.00;;;2.33;;
37459;SDS011;23318;50.966;5.284;2024-01-16T14:13:38;5.50;;;1.75;;
37459;SDS011;23318;50.966;5.284;2024-01-16T14:16:04;4.38;;;1.58;;
37459;SDS011;23318;50.966;5.284;2024-01-16T14:18:30;7.90;;;2.20;;
37459;SDS011;23318;50.966;5.284;2024-01-16T14:20:56;4.15;;;1.67;;
37459;SDS011;23318;50.966;5.284;2024-01-16T14:23:22;9.55;;;2.20;;
37459;SDS011;23318;50.966;5.284;2024-01-16T14:25:47;7.40;;;2.08;;
37459;SDS011;23318;50.966;5.284;2024-01-16T14:28:13;9.80;;;2.30;;
37459;SDS011;23318;50.966;5.284;2024-01-16T14:30:39;7.78;;;2.80;;
37459;SDS011;23318;50.966;5.284;2024-01-16T14:33:05;4.18;;;2.05;;
37459;SDS011;23318;50.966;5.284;2024-01-16T14:35:33;6.15;;;2.17;;
37459;SDS011;23318;50.966;5.284;2024-01-16T14:37:59;6.03;;;2.05;;
37459;SDS011;23318;50.966;5.284;2024-01-16T14:40:25;7.00;;;2.22;;
37459;SDS011;23318;50.966;5.284;2024-01-16T14:42:54;10.55;;;2.45;;
37459;SDS011;23318;50.966;5.284;2024-01-16T14:45:23;5.65;;;2.08;;
37459;SDS011;23318;50.966;5.284;2024-01-16T14:47:50;6.20;;;1.88;;
37459;SDS011;23318;50.966;5.284;2024-01-16T14:50:16;5.45;;;1.90;;
37459;SDS011;23318;50.966;5.284;2024-01-16T14:52:43;6.90;;;2.50;;